Архив погоды в Акше

Метеограмма Акша
Вторник, 17 Июля
Время местн. Темп Ветер Видим Явления Облачность нижн/средн/верх Атм. давл. Влжн Точка росы ВНГО R Сост. почвы Tg s
Напр Скр Прв ур.ст ур.м изм
17:00 +25.8° С 2 - более 50 км облака рассеиваются {гроза} переменная облачность 689 748 -1.7 59% +17.3° 1.5 км - - - -
14:00 +24.1° З,С-З 3 - более 50 км гроза без осадков преимущественно облачно 691 750 +0.1 66% +17.3° 1.5 км - - - -
11:00 +21.7° С,С-З 3 - более 50 км - переменная облачность 691 751 -0.5 75% +17.1° 1.5 км - - - -
08:00 +16.5° С 1 - 10 км туман преимущественно облачно 691 753 +0.2 96% +15.9° 1.5 км 0 Влажная (без луж) +14° -
05:00 +13.8° В 1 - 200 м туман - 691 753 +0.2 96% +13.2° - - - - -
02:00 +13.8° В,С-В 1 - - - ясно 691 753 +0.1 96% +13.2° более 2.5 км - - - -
Понедельник, 16 Июля
Время местн. Темп Ветер Видим Явления Облачность нижн/средн/верх Атм. давл. Влжн Точка росы ВНГО R Сост. почвы Tg s
Напр Скр Прв ур.ст ур.м изм
23:00 +15.4° штиль 0 - - - переменная облачность 691 753 +0.2 95% +14.6° 1.5 км - - - -
20:00 +18.2° штиль 0 - 50 км - преимущественно облачно 691 752 +0.3 88% +16.1° 1.5 км 0 - - -
17:00 +19.3° В 2 - более 50 км - преимущественно облачно 691 751 -0.6 81% +16° 1.5 км - - - -
14:00 +20° С 1 - 50 км - облачно 691 752 -0.7 72% +14.8° 1.5 км - - - -
11:00 +18.6° С,С-З 1 - более 50 км - облачно 692 753 -0.3 82% +15.4° 1.5 км - - - -
08:00 +17.5° Ю,Ю-З 1 - 50 км ливневый дождь облачно 692 753 +0.3 89% +15.6° 1.5 км 0 Влажная (без луж) - -
05:00 +16.3° штиль 0 - более 50 км ливневый дождь облачно 692 753 +0.1 91% +14.8° 1.5 км - - - -
02:00 +17.4° В 1 - - - облачно 692 753 -0.4 84% +14.6° 1.5 км - - - -
Воскресенье, 15 Июля
Время местн. Темп Ветер Видим Явления Облачность нижн/средн/верх Атм. давл. Влжн Точка росы ВНГО R Сост. почвы Tg s
Напр Скр Прв ур.ст ур.м изм
23:00 +17.9° З,С-З 1 - - - преимущественно облачно 692 753 +0.7 82% +14.8° - - - - -
20:00 +21.6° Ю-З 1 - более 50 км - облачно 692 752 +0.6 68% +15.5° более 2.5 км 0 - - -
17:00 +27.1° З,С-З 1 - 50 км - облачно 691 750 -0.7 33% +9.6° 1.5 км - - - -
14:00 +27.4° Ю 2 - более 50 км - облачно 692 751 -1 30% +8.1° 1.5 км - - - -
11:00 +23.4° Ю,Ю-З 3 - более 50 км - облачно 693 753 -0.2 54% +13.5° более 2.5 км - - - -
08:00 +17.4° Ю,Ю-З 3 - 50 км - незначительная облачность 693 754 +0.1 69% +11.7° более 2.5 км 0 Влажная (без луж) - -
05:00 +10.3° Ю 2 - 50 км - ясно 693 756 +0.5 93% +9.2° более 2.5 км - - - -
02:00 +11.1° В 1 - - - ясно 692 755 +0.5 93% +10° более 2.5 км - - - -
Суббота, 14 Июля
Время местн. Темп Ветер Видим Явления Облачность нижн/средн/верх Атм. давл. Влжн Точка росы ВНГО R Сост. почвы Tg s
Напр Скр Прв ур.ст ур.м изм
23:00 +14.3° З 1 - - - ясно 692 754 +0.9 87% +12.1° более 2.5 км - - - -
20:00 +22.2° С 2 - более 50 км - переменная облачность 691 751 +1.1 55% +12.7° 1.5 км 0 - - -
17:00 +24.3° С,С-В 3 - 50 км - переменная облачность 690 749 +0.1 46% +11.9° 1.5 км - - - -
14:00 +23.4° З,С-З 6 11 более 50 км - переменная облачность 690 750 +0.2 43% +10.2° 1.5 км - - - -